createdAt,value
2019-04-26T19:33:11.720Z,10.30
2019-04-26T19:38:15.391Z,25.70
2019-04-26T19:43:30.288Z,20.20
2019-04-26T19:48:56.571Z,14.60
2019-04-26T19:54:07.757Z,10.67
2019-04-26T19:59:12.396Z,9.10
2019-04-26T20:04:17.165Z,12.70
2019-04-26T20:09:22.763Z,7.23
2019-04-26T20:14:39.883Z,9.70
2019-04-26T20:19:37.188Z,8.50
2019-04-26T20:24:39.202Z,11.20
2019-04-26T20:29:47.236Z,7.20
2019-04-26T20:35:04.639Z,6.93
2019-04-26T20:40:18.516Z,5.23
2019-04-26T20:45:16.966Z,7.60
2019-04-26T20:50:21.789Z,8.97
2019-04-26T20:55:30.957Z,5.33
2019-04-26T21:00:36.557Z,9.80
2019-04-26T21:05:46.067Z,4.70
2019-04-26T21:10:44.312Z,5.37
2019-04-26T21:15:57.935Z,4.80
2019-04-26T21:20:54.331Z,5.83
2019-04-26T21:26:21.635Z,5.30
2019-04-26T21:31:52.348Z,6.60
2019-04-26T21:37:05.319Z,4.70
2019-04-26T21:42:10.727Z,4.40
2019-04-26T21:47:15.092Z,5.43
2019-04-26T21:52:21.484Z,7.77
2019-04-26T21:57:28.273Z,5.03
2019-04-26T22:02:34.934Z,5.10
2019-04-26T22:07:39.571Z,3.80
2019-04-26T22:12:45.248Z,3.87
2019-04-26T22:17:54.564Z,3.63
2019-04-26T22:23:35.915Z,3.67
2019-04-26T22:28:39.866Z,3.57
2019-04-26T22:33:44.648Z,3.80
2019-04-26T22:38:50.032Z,8.80
2019-04-26T22:44:15.063Z,6.70
2019-04-26T22:49:19.096Z,5.27
2019-04-26T22:54:24.836Z,3.40
2019-04-26T22:59:29.195Z,3.00
2019-04-26T23:04:33.144Z,4.20
2019-04-26T23:09:37.464Z,6.60
2019-04-26T23:14:55.075Z,3.43
2019-04-26T23:20:34.338Z,3.23
2019-04-26T23:25:35.525Z,2.97
2019-04-26T23:30:39.964Z,6.90
2019-04-26T23:35:47.556Z,4.20
2019-04-26T23:40:49.882Z,4.80
2019-04-26T23:45:54.359Z,3.40
2019-04-26T23:50:59.913Z,3.30
2019-04-26T23:56:04.290Z,4.80
